sensor_id;sensor_type;location;lat;lon;timestamp;P1;durP1;ratioP1;P2;durP2;ratioP2
66970;SDS011;53901;51.466;-2.588;2023-08-06T00:01:11;8.23;;;1.83;;
66970;SDS011;53901;51.466;-2.588;2023-08-06T00:03:37;3.17;;;1.80;;
66970;SDS011;53901;51.466;-2.588;2023-08-06T00:06:02;2.10;;;1.30;;
66970;SDS011;53901;51.466;-2.588;2023-08-06T00:08:29;2.72;;;1.40;;
66970;SDS011;53901;51.466;-2.588;2023-08-06T00:10:55;2.88;;;1.58;;
66970;SDS011;53901;51.466;-2.588;2023-08-06T00:13:20;2.85;;;1.70;;
66970;SDS011;53901;51.466;-2.588;2023-08-06T00:15:45;6.32;;;1.70;;
66970;SDS011;53901;51.466;-2.588;2023-08-06T00:18:11;2.45;;;1.50;;
66970;SDS011;53901;51.466;-2.588;2023-08-06T00:20:38;3.60;;;1.60;;
66970;SDS011;53901;51.466;-2.588;2023-08-06T00:23:04;3.13;;;1.67;;
66970;SDS011;53901;51.466;-2.588;2023-08-06T00:25:29;3.53;;;1.70;;
66970;SDS011;53901;51.466;-2.588;2023-08-06T00:27:55;4.70;;;1.50;;
66970;SDS011;53901;51.466;-2.588;2023-08-06T00:30:21;3.40;;;1.27;;
66970;SDS011;53901;51.466;-2.588;2023-08-06T00:32:46;4.70;;;1.70;;
66970;SDS011;53901;51.466;-2.588;2023-08-06T00:35:12;6.10;;;2.00;;
66970;SDS011;53901;51.466;-2.588;2023-08-06T00:37:38;3.20;;;1.60;;
66970;SDS011;53901;51.466;-2.588;2023-08-06T00:40:04;4.88;;;1.70;;
66970;SDS011;53901;51.466;-2.588;2023-08-06T00:42:30;5.45;;;1.60;;
66970;SDS011;53901;51.466;-2.588;2023-08-06T00:44:56;4.18;;;1.63;;
66970;SDS011;53901;51.466;-2.588;2023-08-06T00:47:21;4.47;;;1.50;;
66970;SDS011;53901;51.466;-2.588;2023-08-06T00:49:46;3.45;;;1.50;;
66970;SDS011;53901;51.466;-2.588;2023-08-06T00:52:12;3.97;;;1.48;;
66970;SDS011;53901;51.466;-2.588;2023-08-06T00:54:39;4.47;;;1.58;;
66970;SDS011;53901;51.466;-2.588;2023-08-06T00:57:04;3.42;;;1.60;;
66970;SDS011;53901;51.466;-2.588;2023-08-06T00:59:32;2.92;;;1.58;;
66970;SDS011;53901;51.466;-2.588;2023-08-06T01:01:58;5.07;;;1.67;;
66970;SDS011;53901;51.466;-2.588;2023-08-06T01:04:23;3.45;;;1.45;;
66970;SDS011;53901;51.466;-2.588;2023-08-06T01:06:52;3.60;;;1.42;;
66970;SDS011;53901;51.466;-2.588;2023-08-06T01:09:27;6.30;;;1.65;;
66970;SDS011;53901;51.466;-2.588;2023-08-06T01:12:05;4.38;;;1.52;;
66970;SDS011;53901;51.466;-2.588;2023-08-06T01:14:47;2.47;;;1.40;;
66970;SDS011;53901;51.466;-2.588;2023-08-06T01:17:13;3.08;;;1.52;;
66970;SDS011;53901;51.466;-2.588;2023-08-06T01:19:39;5.45;;;1.60;;
66970;SDS011;53901;51.466;-2.588;2023-08-06T01:22:04;3.00;;;1.65;;
66970;SDS011;53901;51.466;-2.588;2023-08-06T01:24:30;3.13;;;1.42;;
66970;SDS011;53901;51.466;-2.588;2023-08-06T01:26:59;4.10;;;1.52;;
66970;SDS011;53901;51.466;-2.588;2023-08-06T01:29:41;2.55;;;1.60;;
66970;SDS011;53901;51.466;-2.588;2023-08-06T01:32:08;3.67;;;1.60;;
66970;SDS011;53901;51.466;-2.588;2023-08-06T01:34:35;1.90;;;1.40;;
66970;SDS011;53901;51.466;-2.588;2023-08-06T01:37:04;3.45;;;1.60;;
66970;SDS011;53901;51.466;-2.588;2023-08-06T01:39:31;3.22;;;1.70;;
66970;SDS011;53901;51.466;-2.588;2023-08-06T01:41:58;6.10;;;1.58;;
66970;SDS011;53901;51.466;-2.588;2023-08-06T01:44:23;4.15;;;1.60;;
66970;SDS011;53901;51.466;-2.588;2023-08-06T01:46:49;4.47;;;1.83;;
66970;SDS011;53901;51.466;-2.588;2023-08-06T01:49:14;4.25;;;1.73;;
66970;SDS011;53901;51.466;-2.588;2023-08-06T01:51:39;3.78;;;1.52;;
66970;SDS011;53901;51.466;-2.588;2023-08-06T01:54:05;3.28;;;1.42;;
66970;SDS011;53901;51.466;-2.588;2023-08-06T01:56:30;3.20;;;1.70;;
66970;SDS011;53901;51.466;-2.588;2023-08-06T01:58:55;5.85;;;1.75;;
66970;SDS011;53901;51.466;-2.588;2023-08-06T02:01:21;3.92;;;1.65;;
66970;SDS011;53901;51.466;-2.588;2023-08-06T02:03:46;3.47;;;1.52;;
66970;SDS011;53901;51.466;-2.588;2023-08-06T02:06:11;5.78;;;2.05;;
66970;SDS011;53901;51.466;-2.588;2023-08-06T02:08:37;6.10;;;1.75;;
66970;SDS011;53901;51.466;-2.588;2023-08-06T02:11:03;3.85;;;1.67;;
66970;SDS011;53901;51.466;-2.588;2023-08-06T02:13:28;7.72;;;1.85;;
66970;SDS011;53901;51.466;-2.588;2023-08-06T02:15:54;4.43;;;1.67;;
66970;SDS011;53901;51.466;-2.588;2023-08-06T02:18:19;2.15;;;1.40;;
66970;SDS011;53901;51.466;-2.588;2023-08-06T02:20:54;5.32;;;1.60;;
66970;SDS011;53901;51.466;-2.588;2023-08-06T02:23:20;5.97;;;1.40;;
66970;SDS011;53901;51.466;-2.588;2023-08-06T02:25:46;3.28;;;1.38;;
66970;SDS011;53901;51.466;-2.588;2023-08-06T02:28:11;4.18;;;1.40;;
66970;SDS011;53901;51.466;-2.588;2023-08-06T02:30:36;4.65;;;1.52;;
66970;SDS011;53901;51.466;-2.588;2023-08-06T02:33:02;4.72;;;1.80;;
66970;SDS011;53901;51.466;-2.588;2023-08-06T02:35:30;3.25;;;1.67;;
66970;SDS011;53901;51.466;-2.588;2023-08-06T02:37:55;4.68;;;1.80;;
66970;SDS011;53901;51.466;-2.588;2023-08-06T02:40:21;4.63;;;1.77;;
66970;SDS011;53901;51.466;-2.588;2023-08-06T02:42:46;3.63;;;1.67;;
66970;SDS011;53901;51.466;-2.588;2023-08-06T02:45:12;2.83;;;1.40;;
66970;SDS011;53901;51.466;-2.588;2023-08-06T02:47:37;2.78;;;1.50;;
66970;SDS011;53901;51.466;-2.588;2023-08-06T02:50:02;4.90;;;2.00;;
66970;SDS011;53901;51.466;-2.588;2023-08-06T02:52:28;5.15;;;1.60;;
66970;SDS011;53901;51.466;-2.588;2023-08-06T02:54:53;4.07;;;1.58;;
66970;SDS011;53901;51.466;-2.588;2023-08-06T02:57:18;3.25;;;1.33;;
66970;SDS011;53901;51.466;-2.588;2023-08-06T02:59:44;3.47;;;1.58;;
66970;SDS011;53901;51.466;-2.588;2023-08-06T03:02:09;3.55;;;1.50;;
66970;SDS011;53901;51.466;-2.588;2023-08-06T03:04:34;5.10;;;1.67;;
66970;SDS011;53901;51.466;-2.588;2023-08-06T03:07:00;3.88;;;1.70;;
66970;SDS011;53901;51.466;-2.588;2023-08-06T03:09:25;4.65;;;1.55;;
66970;SDS011;53901;51.466;-2.588;2023-08-06T03:11:50;2.90;;;1.33;;
66970;SDS011;53901;51.466;-2.588;2023-08-06T03:14:16;3.75;;;1.40;;
66970;SDS011;53901;51.466;-2.588;2023-08-06T03:16:41;2.33;;;1.40;;
66970;SDS011;53901;51.466;-2.588;2023-08-06T03:19:07;3.65;;;1.40;;
66970;SDS011;53901;51.466;-2.588;2023-08-06T03:21:32;2.20;;;1.40;;
66970;SDS011;53901;51.466;-2.588;2023-08-06T03:23:57;3.50;;;1.48;;
66970;SDS011;53901;51.466;-2.588;2023-08-06T03:26:23;5.82;;;1.73;;
66970;SDS011;53901;51.466;-2.588;2023-08-06T03:28:48;7.00;;;1.70;;
66970;SDS011;53901;51.466;-2.588;2023-08-06T03:31:13;4.13;;;1.40;;
66970;SDS011;53901;51.466;-2.588;2023-08-06T03:33:38;4.47;;;1.48;;
66970;SDS011;53901;51.466;-2.588;2023-08-06T03:36:04;4.50;;;2.08;;
66970;SDS011;53901;51.466;-2.588;2023-08-06T03:38:29;5.75;;;1.35;;
66970;SDS011;53901;51.466;-2.588;2023-08-06T03:40:54;3.25;;;1.42;;
66970;SDS011;53901;51.466;-2.588;2023-08-06T03:43:20;2.40;;;1.38;;
66970;SDS011;53901;51.466;-2.588;2023-08-06T03:45:45;3.55;;;1.40;;
66970;SDS011;53901;51.466;-2.588;2023-08-06T03:48:10;2.95;;;1.30;;
66970;SDS011;53901;51.466;-2.588;2023-08-06T03:50:36;2.85;;;1.52;;
66970;SDS011;53901;51.466;-2.588;2023-08-06T03:53:01;3.72;;;1.60;;
66970;SDS011;53901;51.466;-2.588;2023-08-06T03:55:27;2.53;;;1.42;;
66970;SDS011;53901;51.466;-2.588;2023-08-06T03:57:53;2.08;;;1.30;;
66970;SDS011;53901;51.466;-2.588;2023-08-06T04:00:18;5.45;;;1.35;;
66970;SDS011;53901;51.466;-2.588;2023-08-06T04:02:43;4.82;;;1.70;;
66970;SDS011;53901;51.466;-2.588;2023-08-06T04:05:09;2.25;;;1.17;;
66970;SDS011;53901;51.466;-2.588;2023-08-06T04:07:34;4.22;;;1.52;;
66970;SDS011;53901;51.466;-2.588;2023-08-06T04:10:00;3.65;;;1.55;;
66970;SDS011;53901;51.466;-2.588;2023-08-06T04:12:27;3.08;;;1.23;;
66970;SDS011;53901;51.466;-2.588;2023-08-06T04:14:53;2.95;;;1.52;;
66970;SDS011;53901;51.466;-2.588;2023-08-06T04:17:19;3.28;;;1.48;;
66970;SDS011;53901;51.466;-2.588;2023-08-06T04:19:54;4.13;;;1.50;;
66970;SDS011;53901;51.466;-2.588;2023-08-06T04:22:23;1.92;;;1.40;;
66970;SDS011;53901;51.466;-2.588;2023-08-06T04:24:48;4.15;;;1.42;;
66970;SDS011;53901;51.466;-2.588;2023-08-06T04:27:14;4.32;;;1.35;;
66970;SDS011;53901;51.466;-2.588;2023-08-06T04:29:40;2.30;;;1.40;;
66970;SDS011;53901;51.466;-2.588;2023-08-06T04:32:06;2.25;;;1.30;;
66970;SDS011;53901;51.466;-2.588;2023-08-06T04:34:33;2.53;;;1.35;;
66970;SDS011;53901;51.466;-2.588;2023-08-06T04:36:59;4.03;;;1.48;;
66970;SDS011;53901;51.466;-2.588;2023-08-06T04:39:25;5.00;;;1.75;;
66970;SDS011;53901;51.466;-2.588;2023-08-06T04:41:50;2.92;;;1.40;;
66970;SDS011;53901;51.466;-2.588;2023-08-06T04:44:15;3.13;;;1.70;;
66970;SDS011;53901;51.466;-2.588;2023-08-06T04:46:41;5.32;;;1.50;;
66970;SDS011;53901;51.466;-2.588;2023-08-06T04:49:06;3.90;;;1.63;;
66970;SDS011;53901;51.466;-2.588;2023-08-06T04:51:31;2.10;;;1.35;;
66970;SDS011;53901;51.466;-2.588;2023-08-06T04:53:57;4.00;;;1.70;;
66970;SDS011;53901;51.466;-2.588;2023-08-06T04:56:22;4.78;;;1.45;;
66970;SDS011;53901;51.466;-2.588;2023-08-06T04:58:48;3.88;;;1.80;;
66970;SDS011;53901;51.466;-2.588;2023-08-06T05:01:13;3.40;;;1.40;;
66970;SDS011;53901;51.466;-2.588;2023-08-06T05:03:39;9.98;;;2.08;;
66970;SDS011;53901;51.466;-2.588;2023-08-06T05:06:04;6.60;;;1.92;;
66970;SDS011;53901;51.466;-2.588;2023-08-06T05:08:30;3.13;;;1.40;;
66970;SDS011;53901;51.466;-2.588;2023-08-06T05:10:55;2.50;;;1.33;;
66970;SDS011;53901;51.466;-2.588;2023-08-06T05:13:20;6.10;;;1.75;;
66970;SDS011;53901;51.466;-2.588;2023-08-06T05:15:46;3.20;;;1.50;;
66970;SDS011;53901;51.466;-2.588;2023-08-06T05:18:11;4.72;;;1.77;;
66970;SDS011;53901;51.466;-2.588;2023-08-06T05:20:37;3.08;;;1.70;;
66970;SDS011;53901;51.466;-2.588;2023-08-06T05:23:04;5.18;;;1.77;;
66970;SDS011;53901;51.466;-2.588;2023-08-06T05:25:29;8.32;;;1.85;;
66970;SDS011;53901;51.466;-2.588;2023-08-06T05:27:55;2.78;;;1.60;;
66970;SDS011;53901;51.466;-2.588;2023-08-06T05:30:20;4.20;;;1.65;;
66970;SDS011;53901;51.466;-2.588;2023-08-06T05:32:46;4.97;;;1.85;;
66970;SDS011;53901;51.466;-2.588;2023-08-06T05:35:11;3.20;;;1.70;;
66970;SDS011;53901;51.466;-2.588;2023-08-06T05:37:36;2.10;;;1.30;;
66970;SDS011;53901;51.466;-2.588;2023-08-06T05:40:02;3.28;;;1.55;;
66970;SDS011;53901;51.466;-2.588;2023-08-06T05:42:29;3.83;;;1.45;;
66970;SDS011;53901;51.466;-2.588;2023-08-06T05:44:54;3.97;;;1.70;;
66970;SDS011;53901;51.466;-2.588;2023-08-06T05:47:19;5.43;;;2.40;;
66970;SDS011;53901;51.466;-2.588;2023-08-06T05:49:45;3.92;;;1.60;;
66970;SDS011;53901;51.466;-2.588;2023-08-06T05:52:10;2.65;;;1.48;;
66970;SDS011;53901;51.466;-2.588;2023-08-06T05:54:36;5.50;;;1.75;;
66970;SDS011;53901;51.466;-2.588;2023-08-06T05:57:01;5.13;;;1.58;;
66970;SDS011;53901;51.466;-2.588;2023-08-06T05:59:27;6.60;;;1.75;;
66970;SDS011;53901;51.466;-2.588;2023-08-06T06:01:52;5.15;;;1.48;;
66970;SDS011;53901;51.466;-2.588;2023-08-06T06:04:17;4.20;;;1.70;;
66970;SDS011;53901;51.466;-2.588;2023-08-06T06:06:43;6.90;;;1.73;;
66970;SDS011;53901;51.466;-2.588;2023-08-06T06:09:08;3.00;;;1.45;;
66970;SDS011;53901;51.466;-2.588;2023-08-06T06:11:33;5.05;;;2.50;;
66970;SDS011;53901;51.466;-2.588;2023-08-06T06:13:59;5.45;;;1.33;;
66970;SDS011;53901;51.466;-2.588;2023-08-06T06:16:24;4.38;;;1.58;;
66970;SDS011;53901;51.466;-2.588;2023-08-06T06:18:49;5.00;;;1.30;;
66970;SDS011;53901;51.466;-2.588;2023-08-06T06:21:15;3.78;;;1.40;;
66970;SDS011;53901;51.466;-2.588;2023-08-06T06:23:40;5.47;;;1.40;;
66970;SDS011;53901;51.466;-2.588;2023-08-06T06:26:06;4.60;;;1.33;;
66970;SDS011;53901;51.466;-2.588;2023-08-06T06:28:31;6.50;;;1.80;;
66970;SDS011;53901;51.466;-2.588;2023-08-06T06:31:00;3.42;;;1.30;;
66970;SDS011;53901;51.466;-2.588;2023-08-06T06:33:26;3.17;;;1.30;;
66970;SDS011;53901;51.466;-2.588;2023-08-06T06:35:51;6.20;;;1.25;;
66970;SDS011;53901;51.466;-2.588;2023-08-06T06:38:17;5.07;;;1.30;;
66970;SDS011;53901;51.466;-2.588;2023-08-06T06:40:42;6.18;;;1.38;;
66970;SDS011;53901;51.466;-2.588;2023-08-06T06:43:07;5.07;;;1.50;;
66970;SDS011;53901;51.466;-2.588;2023-08-06T06:45:33;4.07;;;1.20;;
66970;SDS011;53901;51.466;-2.588;2023-08-06T06:47:58;4.47;;;1.10;;
66970;SDS011;53901;51.466;-2.588;2023-08-06T06:50:23;2.90;;;1.00;;
66970;SDS011;53901;51.466;-2.588;2023-08-06T06:52:49;4.82;;;1.45;;
66970;SDS011;53901;51.466;-2.588;2023-08-06T06:55:14;1.98;;;1.10;;
66970;SDS011;53901;51.466;-2.588;2023-08-06T06:57:40;7.10;;;1.67;;
66970;SDS011;53901;51.466;-2.588;2023-08-06T07:00:05;3.47;;;1.10;;
66970;SDS011;53901;51.466;-2.588;2023-08-06T07:02:31;2.60;;;1.20;;
66970;SDS011;53901;51.466;-2.588;2023-08-06T07:04:56;3.15;;;1.00;;
66970;SDS011;53901;51.466;-2.588;2023-08-06T07:07:21;2.63;;;1.00;;
66970;SDS011;53901;51.466;-2.588;2023-08-06T07:09:47;3.10;;;1.17;;
66970;SDS011;53901;51.466;-2.588;2023-08-06T07:12:12;3.75;;;1.35;;
66970;SDS011;53901;51.466;-2.588;2023-08-06T07:14:38;2.03;;;0.95;;
66970;SDS011;53901;51.466;-2.588;2023-08-06T07:17:04;3.55;;;1.10;;
66970;SDS011;53901;51.466;-2.588;2023-08-06T07:19:29;3.95;;;0.90;;
66970;SDS011;53901;51.466;-2.588;2023-08-06T07:21:55;3.10;;;1.20;;
66970;SDS011;53901;51.466;-2.588;2023-08-06T07:24:21;3.95;;;1.20;;
66970;SDS011;53901;51.466;-2.588;2023-08-06T07:26:46;2.53;;;1.10;;
66970;SDS011;53901;51.466;-2.588;2023-08-06T07:29:12;5.60;;;1.27;;
66970;SDS011;53901;51.466;-2.588;2023-08-06T07:31:37;3.28;;;1.23;;
66970;SDS011;53901;51.466;-2.588;2023-08-06T07:34:02;6.72;;;1.20;;
66970;SDS011;53901;51.466;-2.588;2023-08-06T07:36:28;4.15;;;0.90;;
66970;SDS011;53901;51.466;-2.588;2023-08-06T07:38:53;4.28;;;1.30;;
66970;SDS011;53901;51.466;-2.588;2023-08-06T07:41:22;2.05;;;0.98;;
66970;SDS011;53901;51.466;-2.588;2023-08-06T07:43:48;4.20;;;1.20;;
66970;SDS011;53901;51.466;-2.588;2023-08-06T07:46:14;2.90;;;1.10;;
66970;SDS011;53901;51.466;-2.588;2023-08-06T07:48:39;6.10;;;1.27;;
66970;SDS011;53901;51.466;-2.588;2023-08-06T07:51:05;4.93;;;1.30;;
66970;SDS011;53901;51.466;-2.588;2023-08-06T07:53:30;4.38;;;1.00;;
66970;SDS011;53901;51.466;-2.588;2023-08-06T07:55:56;2.72;;;0.90;;
66970;SDS011;53901;51.466;-2.588;2023-08-06T07:58:22;4.47;;;1.20;;
66970;SDS011;53901;51.466;-2.588;2023-08-06T08:00:48;1.30;;;0.90;;
66970;SDS011;53901;51.466;-2.588;2023-08-06T08:03:14;1.52;;;0.80;;
66970;SDS011;53901;51.466;-2.588;2023-08-06T08:05:40;1.67;;;0.80;;
66970;SDS011;53901;51.466;-2.588;2023-08-06T08:08:06;3.28;;;1.30;;
66970;SDS011;53901;51.466;-2.588;2023-08-06T08:10:32;0.93;;;0.60;;
66970;SDS011;53901;51.466;-2.588;2023-08-06T08:12:58;2.40;;;1.00;;
66970;SDS011;53901;51.466;-2.588;2023-08-06T08:15:24;1.95;;;1.00;;
66970;SDS011;53901;51.466;-2.588;2023-08-06T08:17:51;2.22;;;0.88;;
66970;SDS011;53901;51.466;-2.588;2023-08-06T08:20:17;1.40;;;0.60;;
66970;SDS011;53901;51.466;-2.588;2023-08-06T08:22:42;2.85;;;0.85;;
66970;SDS011;53901;51.466;-2.588;2023-08-06T08:25:07;2.10;;;0.88;;
66970;SDS011;53901;51.466;-2.588;2023-08-06T08:27:33;2.63;;;0.90;;
66970;SDS011;53901;51.466;-2.588;2023-08-06T08:29:58;5.00;;;0.73;;
66970;SDS011;53901;51.466;-2.588;2023-08-06T08:32:23;1.23;;;0.75;;
66970;SDS011;53901;51.466;-2.588;2023-08-06T08:34:49;1.05;;;0.60;;
66970;SDS011;53901;51.466;-2.588;2023-08-06T08:37:14;3.08;;;0.70;;
66970;SDS011;53901;51.466;-2.588;2023-08-06T08:39:39;2.17;;;0.80;;
66970;SDS011;53901;51.466;-2.588;2023-08-06T08:42:05;2.90;;;0.70;;
66970;SDS011;53901;51.466;-2.588;2023-08-06T08:44:33;2.25;;;1.13;;
66970;SDS011;53901;51.466;-2.588;2023-08-06T08:46:59;4.35;;;0.70;;
66970;SDS011;53901;51.466;-2.588;2023-08-06T08:49:25;0.73;;;0.55;;
66970;SDS011;53901;51.466;-2.588;2023-08-06T08:51:51;3.35;;;0.70;;
66970;SDS011;53901;51.466;-2.588;2023-08-06T08:54:17;2.47;;;0.73;;
66970;SDS011;53901;51.466;-2.588;2023-08-06T08:56:43;1.48;;;0.82;;
66970;SDS011;53901;51.466;-2.588;2023-08-06T08:59:09;0.95;;;0.63;;
66970;SDS011;53901;51.466;-2.588;2023-08-06T09:01:35;2.83;;;0.90;;
66970;SDS011;53901;51.466;-2.588;2023-08-06T09:04:02;4.30;;;1.00;;
66970;SDS011;53901;51.466;-2.588;2023-08-06T09:06:29;1.52;;;0.60;;
66970;SDS011;53901;51.466;-2.588;2023-08-06T09:08:56;3.05;;;0.80;;
66970;SDS011;53901;51.466;-2.588;2023-08-06T09:11:27;2.45;;;0.90;;
66970;SDS011;53901;51.466;-2.588;2023-08-06T09:13:53;2.88;;;1.00;;
66970;SDS011;53901;51.466;-2.588;2023-08-06T09:16:18;2.58;;;0.80;;
66970;SDS011;53901;51.466;-2.588;2023-08-06T09:18:44;3.33;;;0.90;;
66970;SDS011;53901;51.466;-2.588;2023-08-06T09:21:13;3.75;;;0.90;;
66970;SDS011;53901;51.466;-2.588;2023-08-06T09:23:41;3.03;;;1.42;;
66970;SDS011;53901;51.466;-2.588;2023-08-06T09:26:06;2.20;;;1.05;;
66970;SDS011;53901;51.466;-2.588;2023-08-06T09:28:36;2.88;;;0.90;;
66970;SDS011;53901;51.466;-2.588;2023-08-06T09:31:02;4.13;;;1.17;;
66970;SDS011;53901;51.466;-2.588;2023-08-06T09:33:29;1.92;;;1.00;;
66970;SDS011;53901;51.466;-2.588;2023-08-06T09:35:54;4.72;;;1.10;;
66970;SDS011;53901;51.466;-2.588;2023-08-06T09:38:20;1.88;;;1.08;;
66970;SDS011;53901;51.466;-2.588;2023-08-06T09:40:45;6.10;;;1.40;;
66970;SDS011;53901;51.466;-2.588;2023-08-06T09:43:11;3.00;;;1.10;;
66970;SDS011;53901;51.466;-2.588;2023-08-06T09:45:37;3.30;;;0.88;;
66970;SDS011;53901;51.466;-2.588;2023-08-06T09:48:04;3.33;;;0.98;;
66970;SDS011;53901;51.466;-2.588;2023-08-06T09:50:30;3.63;;;0.90;;
66970;SDS011;53901;51.466;-2.588;2023-08-06T09:52:57;1.75;;;0.82;;
66970;SDS011;53901;51.466;-2.588;2023-08-06T09:55:23;2.33;;;0.70;;
66970;SDS011;53901;51.466;-2.588;2023-08-06T09:57:50;1.10;;;0.68;;
66970;SDS011;53901;51.466;-2.588;2023-08-06T10:00:15;3.20;;;0.70;;
66970;SDS011;53901;51.466;-2.588;2023-08-06T10:02:41;1.35;;;0.77;;
66970;SDS011;53901;51.466;-2.588;2023-08-06T10:05:07;0.77;;;0.60;;
66970;SDS011;53901;51.466;-2.588;2023-08-06T10:07:33;3.72;;;0.82;;
66970;SDS011;53901;51.466;-2.588;2023-08-06T10:09:59;1.23;;;0.70;;
66970;SDS011;53901;51.466;-2.588;2023-08-06T10:12:25;3.15;;;0.75;;
66970;SDS011;53901;51.466;-2.588;2023-08-06T10:14:53;1.00;;;0.50;;
66970;SDS011;53901;51.466;-2.588;2023-08-06T10:17:20;2.65;;;0.70;;
66970;SDS011;53901;51.466;-2.588;2023-08-06T10:19:46;2.15;;;0.60;;
66970;SDS011;53901;51.466;-2.588;2023-08-06T10:22:13;5.28;;;0.98;;
66970;SDS011;53901;51.466;-2.588;2023-08-06T10:27:37;1.52;;;0.65;;
66970;SDS011;53901;51.466;-2.588;2023-08-06T10:30:20;1.20;;;0.60;;
66970;SDS011;53901;51.466;-2.588;2023-08-06T10:32:53;0.80;;;0.50;;
66970;SDS011;53901;51.466;-2.588;2023-08-06T10:38:04;2.40;;;0.60;;
66970;SDS011;53901;51.466;-2.588;2023-08-06T10:40:30;1.63;;;0.70;;
66970;SDS011;53901;51.466;-2.588;2023-08-06T10:43:00;1.55;;;0.60;;
66970;SDS011;53901;51.466;-2.588;2023-08-06T10:45:26;4.20;;;0.80;;
66970;SDS011;53901;51.466;-2.588;2023-08-06T10:47:54;1.40;;;0.80;;
66970;SDS011;53901;51.466;-2.588;2023-08-06T10:50:23;1.25;;;0.75;;
66970;SDS011;53901;51.466;-2.588;2023-08-06T10:52:49;2.10;;;0.63;;
66970;SDS011;53901;51.466;-2.588;2023-08-06T10:55:22;1.48;;;0.77;;
66970;SDS011;53901;51.466;-2.588;2023-08-06T10:57:49;3.70;;;1.35;;
66970;SDS011;53901;51.466;-2.588;2023-08-06T11:00:14;2.30;;;0.93;;
66970;SDS011;53901;51.466;-2.588;2023-08-06T11:02:40;1.75;;;0.60;;
66970;SDS011;53901;51.466;-2.588;2023-08-06T11:05:06;0.73;;;0.55;;
66970;SDS011;53901;51.466;-2.588;2023-08-06T11:07:32;1.00;;;0.60;;
66970;SDS011;53901;51.466;-2.588;2023-08-06T11:10:04;1.98;;;0.70;;
66970;SDS011;53901;51.466;-2.588;2023-08-06T11:12:31;2.80;;;0.80;;
66970;SDS011;53901;51.466;-2.588;2023-08-06T11:14:56;1.98;;;0.70;;
66970;SDS011;53901;51.466;-2.588;2023-08-06T11:17:22;2.58;;;0.88;;
66970;SDS011;53901;51.466;-2.588;2023-08-06T11:19:47;4.88;;;0.70;;
66970;SDS011;53901;51.466;-2.588;2023-08-06T11:22:14;1.75;;;0.70;;
66970;SDS011;53901;51.466;-2.588;2023-08-06T11:24:39;2.80;;;0.77;;
66970;SDS011;53901;51.466;-2.588;2023-08-06T11:27:11;2.40;;;0.60;;
66970;SDS011;53901;51.466;-2.588;2023-08-06T11:29:38;1.83;;;0.80;;
66970;SDS011;53901;51.466;-2.588;2023-08-06T11:32:06;1.30;;;0.68;;
66970;SDS011;53901;51.466;-2.588;2023-08-06T11:34:31;1.02;;;0.70;;
66970;SDS011;53901;51.466;-2.588;2023-08-06T11:36:57;2.65;;;0.57;;
66970;SDS011;53901;51.466;-2.588;2023-08-06T11:39:22;1.30;;;0.60;;
66970;SDS011;53901;51.466;-2.588;2023-08-06T11:41:48;1.90;;;0.73;;
66970;SDS011;53901;51.466;-2.588;2023-08-06T11:44:14;3.05;;;0.70;;
66970;SDS011;53901;51.466;-2.588;2023-08-06T11:47:00;2.22;;;0.60;;
66970;SDS011;53901;51.466;-2.588;2023-08-06T11:52:13;1.75;;;0.80;;
66970;SDS011;53901;51.466;-2.588;2023-08-06T11:54:39;3.40;;;0.90;;
66970;SDS011;53901;51.466;-2.588;2023-08-06T11:57:07;4.22;;;0.88;;
66970;SDS011;53901;51.466;-2.588;2023-08-06T11:59:33;1.70;;;0.70;;
66970;SDS011;53901;51.466;-2.588;2023-08-06T12:02:02;1.08;;;0.70;;
66970;SDS011;53901;51.466;-2.588;2023-08-06T12:04:30;3.47;;;0.60;;
66970;SDS011;53901;51.466;-2.588;2023-08-06T12:07:03;2.03;;;0.75;;
66970;SDS011;53901;51.466;-2.588;2023-08-06T12:09:30;1.50;;;0.77;;
66970;SDS011;53901;51.466;-2.588;2023-08-06T12:11:55;2.15;;;0.90;;
66970;SDS011;53901;51.466;-2.588;2023-08-06T12:14:20;4.70;;;1.25;;
66970;SDS011;53901;51.466;-2.588;2023-08-06T12:16:46;1.30;;;0.70;;
66970;SDS011;53901;51.466;-2.588;2023-08-06T12:19:11;3.92;;;1.00;;
66970;SDS011;53901;51.466;-2.588;2023-08-06T12:21:36;2.33;;;0.70;;
66970;SDS011;53901;51.466;-2.588;2023-08-06T12:24:02;2.50;;;0.90;;
66970;SDS011;53901;51.466;-2.588;2023-08-06T12:26:27;1.92;;;0.80;;
66970;SDS011;53901;51.466;-2.588;2023-08-06T12:28:53;1.60;;;0.80;;
66970;SDS011;53901;51.466;-2.588;2023-08-06T12:31:20;4.65;;;0.88;;
66970;SDS011;53901;51.466;-2.588;2023-08-06T12:33:45;2.47;;;0.70;;
66970;SDS011;53901;51.466;-2.588;2023-08-06T12:36:10;1.52;;;0.60;;
66970;SDS011;53901;51.466;-2.588;2023-08-06T12:38:36;4.72;;;1.10;;
66970;SDS011;53901;51.466;-2.588;2023-08-06T12:41:02;2.40;;;0.90;;
66970;SDS011;53901;51.466;-2.588;2023-08-06T12:43:27;2.15;;;0.90;;
66970;SDS011;53901;51.466;-2.588;2023-08-06T12:45:52;1.00;;;0.60;;
66970;SDS011;53901;51.466;-2.588;2023-08-06T12:48:18;2.03;;;0.70;;
66970;SDS011;53901;51.466;-2.588;2023-08-06T12:50:44;1.83;;;0.77;;
66970;SDS011;53901;51.466;-2.588;2023-08-06T12:53:09;2.00;;;0.70;;
66970;SDS011;53901;51.466;-2.588;2023-08-06T12:55:34;2.00;;;0.73;;
66970;SDS011;53901;51.466;-2.588;2023-08-06T12:58:00;1.27;;;0.60;;
66970;SDS011;53901;51.466;-2.588;2023-08-06T13:00:26;3.20;;;0.80;;
66970;SDS011;53901;51.466;-2.588;2023-08-06T13:02:51;2.05;;;0.90;;
66970;SDS011;53901;51.466;-2.588;2023-08-06T13:05:16;2.45;;;0.70;;
66970;SDS011;53901;51.466;-2.588;2023-08-06T13:07:42;2.17;;;0.80;;
66970;SDS011;53901;51.466;-2.588;2023-08-06T13:10:07;1.52;;;0.70;;
66970;SDS011;53901;51.466;-2.588;2023-08-06T13:12:33;1.60;;;0.75;;
66970;SDS011;53901;51.466;-2.588;2023-08-06T13:14:58;1.55;;;0.70;;
66970;SDS011;53901;51.466;-2.588;2023-08-06T13:17:24;2.40;;;0.90;;
66970;SDS011;53901;51.466;-2.588;2023-08-06T13:19:49;2.38;;;1.48;;
66970;SDS011;53901;51.466;-2.588;2023-08-06T13:22:15;2.08;;;0.85;;
66970;SDS011;53901;51.466;-2.588;2023-08-06T13:24:40;1.50;;;0.80;;
66970;SDS011;53901;51.466;-2.588;2023-08-06T13:27:06;2.13;;;0.77;;
66970;SDS011;53901;51.466;-2.588;2023-08-06T13:29:31;1.90;;;0.90;;
66970;SDS011;53901;51.466;-2.588;2023-08-06T13:31:57;1.55;;;0.70;;
66970;SDS011;53901;51.466;-2.588;2023-08-06T13:34:22;1.88;;;0.70;;
66970;SDS011;53901;51.466;-2.588;2023-08-06T13:36:48;3.90;;;0.98;;
66970;SDS011;53901;51.466;-2.588;2023-08-06T13:39:13;2.67;;;0.80;;
66970;SDS011;53901;51.466;-2.588;2023-08-06T13:41:41;3.28;;;0.85;;
66970;SDS011;53901;51.466;-2.588;2023-08-06T13:44:06;1.52;;;0.95;;
66970;SDS011;53901;51.466;-2.588;2023-08-06T13:46:32;1.95;;;0.80;;
66970;SDS011;53901;51.466;-2.588;2023-08-06T13:48:57;2.47;;;1.08;;
66970;SDS011;53901;51.466;-2.588;2023-08-06T13:51:23;2.53;;;0.90;;
66970;SDS011;53901;51.466;-2.588;2023-08-06T13:53:48;2.33;;;0.90;;
66970;SDS011;53901;51.466;-2.588;2023-08-06T13:56:13;2.55;;;1.00;;
66970;SDS011;53901;51.466;-2.588;2023-08-06T13:58:42;2.22;;;1.00;;
66970;SDS011;53901;51.466;-2.588;2023-08-06T14:01:09;1.83;;;0.90;;
66970;SDS011;53901;51.466;-2.588;2023-08-06T14:03:35;2.83;;;1.35;;
66970;SDS011;53901;51.466;-2.588;2023-08-06T14:06:01;2.05;;;1.02;;
66970;SDS011;53901;51.466;-2.588;2023-08-06T14:08:26;1.98;;;0.90;;
66970;SDS011;53901;51.466;-2.588;2023-08-06T14:10:52;2.05;;;0.88;;
66970;SDS011;53901;51.466;-2.588;2023-08-06T14:13:18;2.38;;;0.90;;
66970;SDS011;53901;51.466;-2.588;2023-08-06T14:15:43;1.85;;;0.80;;
66970;SDS011;53901;51.466;-2.588;2023-08-06T14:18:11;1.30;;;0.85;;
66970;SDS011;53901;51.466;-2.588;2023-08-06T14:20:37;1.40;;;0.70;;
66970;SDS011;53901;51.466;-2.588;2023-08-06T14:23:02;1.98;;;1.00;;
66970;SDS011;53901;51.466;-2.588;2023-08-06T14:25:28;2.40;;;0.90;;
66970;SDS011;53901;51.466;-2.588;2023-08-06T14:27:53;3.20;;;1.20;;
66970;SDS011;53901;51.466;-2.588;2023-08-06T14:30:19;4.15;;;1.08;;
66970;SDS011;53901;51.466;-2.588;2023-08-06T14:32:44;2.20;;;1.00;;
66970;SDS011;53901;51.466;-2.588;2023-08-06T14:35:10;5.45;;;1.13;;